Time;durP1;ratioP1;P1;durP2;ratioP2;P2;SDS_P1;SDS_P2;PMS_P1;PMS_P2;Temp;Humidity;BMP_temperature;BMP_pressure;BME280_temperature;BME280_humidity;BME280_pressure;Samples;Min_cycle;Max_cycle;Signal;HPM_P1;HPM_P2
2021/01/31 00:00:59;;;;;;;15.00;7.10;;;;;;;;;;5006406;28;20064;-69
2021/01/31 00:03:28;;;;;;;14.98;7.60;;;;;;;;;;5007008;28;20037;-69
2021/01/31 00:05:55;;;;;;;15.93;7.47;;;;;;;;;;5000766;28;20048;-69
2021/01/31 00:08:23;;;;;;;15.37;7.33;;;;;;;;;;5005481;28;20030;-69
2021/01/31 00:10:50;;;;;;;16.97;7.43;;;;;;;;;;5010174;28;20574;-69
2021/01/31 00:13:17;;;;;;;16.35;7.03;;;;;;;;;;5006857;28;20527;-68
2021/01/31 00:15:46;;;;;;;18.13;7.40;;;;;;;;;;5000237;28;20057;-69
2021/01/31 00:18:13;;;;;;;13.20;6.77;;;;;;;;;;5006249;28;20049;-69
2021/01/31 00:20:42;;;;;;;16.27;6.82;;;;;;;;;;5008958;28;20041;-69
2021/01/31 00:23:08;;;;;;;19.20;8.63;;;;;;;;;;5005193;28;20053;-69
2021/01/31 00:25:35;;;;;;;16.92;8.05;;;;;;;;;;4997652;28;20092;-69
2021/01/31 00:28:01;;;;;;;16.50;8.07;;;;;;;;;;5002406;28;20042;-69
2021/01/31 00:30:30;;;;;;;18.77;8.27;;;;;;;;;;5006902;28;20300;-69
2021/01/31 00:32:57;;;;;;;17.73;8.10;;;;;;;;;;5003374;28;20029;-69
2021/01/31 00:35:25;;;;;;;21.45;8.25;;;;;;;;;;5008072;28;20100;-69
2021/01/31 00:37:52;;;;;;;13.27;7.03;;;;;;;;;;5002825;28;20130;-69
2021/01/31 00:40:19;;;;;;;22.58;7.05;;;;;;;;;;5001044;28;20071;-69
2021/01/31 00:42:45;;;;;;;15.55;6.50;;;;;;;;;;5000553;28;20907;-69
2021/01/31 00:45:13;;;;;;;11.70;6.18;;;;;;;;;;5007541;28;20038;-69
2021/01/31 00:47:40;;;;;;;16.57;7.50;;;;;;;;;;5006453;28;20045;-69
2021/01/31 00:50:06;;;;;;;18.70;7.50;;;;;;;;;;5011131;28;20117;-69
2021/01/31 00:52:33;;;;;;;15.85;6.28;;;;;;;;;;5002622;28;20053;-69
2021/01/31 00:54:59;;;;;;;15.13;7.03;;;;;;;;;;5018897;28;20046;-69
2021/01/31 00:57:25;;;;;;;12.05;5.72;;;;;;;;;;5010115;28;20046;-69
2021/01/31 00:59:52;;;;;;;13.87;7.30;;;;;;;;;;5017816;28;20136;-69
2021/01/31 01:02:21;;;;;;;16.13;7.40;;;;;;;;;;5019449;28;20959;-69
2021/01/31 01:04:49;;;;;;;21.63;8.70;;;;;;;;;;5003364;28;20030;-69
2021/01/31 01:07:16;;;;;;;16.67;7.53;;;;;;;;;;5003478;28;20473;-69
2021/01/31 01:09:44;;;;;;;15.17;7.93;;;;;;;;;;5001070;28;20041;-68
2021/01/31 01:12:11;;;;;;;15.03;7.17;;;;;;;;;;5004016;28;20030;-69
2021/01/31 01:14:37;;;;;;;13.90;5.87;;;;;;;;;;5002598;28;20050;-69
2021/01/31 01:17:03;;;;;;;13.17;5.93;;;;;;;;;;4998261;28;20321;-69
2021/01/31 01:19:29;;;;;;;26.07;8.10;;;;;;;;;;5004906;28;20362;-68
2021/01/31 01:21:57;;;;;;;23.00;8.10;;;;;;;;;;5008438;28;20301;-69
2021/01/31 01:24:23;;;;;;;15.93;7.90;;;;;;;;;;5006666;28;20449;-69
2021/01/31 01:26:49;;;;;;;17.40;6.72;;;;;;;;;;5003326;28;20042;-69
2021/01/31 01:29:16;;;;;;;15.33;6.90;;;;;;;;;;5005406;28;20062;-68
2021/01/31 01:31:42;;;;;;;15.30;6.63;;;;;;;;;;5007126;28;20288;-68
2021/01/31 01:34:08;;;;;;;16.87;7.83;;;;;;;;;;5006880;28;20104;-69
2021/01/31 01:36:34;;;;;;;18.70;7.77;;;;;;;;;;5009548;28;20452;-68
2021/01/31 01:39:00;;;;;;;14.53;6.17;;;;;;;;;;5002502;28;20042;-69
2021/01/31 01:41:34;;;;;;;19.13;7.83;;;;;;;;;;5000701;28;20293;-68
2021/01/31 01:44:00;;;;;;;11.80;6.10;;;;;;;;;;5004148;28;20053;-69
2021/01/31 01:46:30;;;;;;;12.15;4.93;;;;;;;;;;5009433;28;20136;-69
2021/01/31 01:48:59;;;;;;;14.60;6.40;;;;;;;;;;5009797;28;20034;-69
2021/01/31 01:51:31;;;;;;;17.97;6.77;;;;;;;;;;5010798;28;20048;-69
2021/01/31 01:54:00;;;;;;;16.97;6.83;;;;;;;;;;5007894;28;20494;-69
2021/01/31 01:56:32;;;;;;;11.87;6.53;;;;;;;;;;5011060;28;20065;-69
2021/01/31 01:58:59;;;;;;;16.60;6.63;;;;;;;;;;5011068;28;20099;-68
2021/01/31 02:01:25;;;;;;;;;;;;;;;;;;5003792;28;20050;-68
2021/01/31 02:03:52;;;;;;;11.97;6.23;;;;;;;;;;5008333;28;20301;-69
2021/01/31 02:06:22;;;;;;;12.30;6.20;;;;;;;;;;5009556;28;20058;-68
2021/01/31 02:08:49;;;;;;;15.23;6.23;;;;;;;;;;5007041;28;20454;-69
2021/01/31 02:11:15;;;;;;;12.85;4.97;;;;;;;;;;5003134;28;20034;-69
2021/01/31 02:13:44;;;;;;;13.23;6.33;;;;;;;;;;5008372;28;20486;-69
2021/01/31 02:16:14;;;;;;;15.20;6.23;;;;;;;;;;5007177;28;20053;-69
2021/01/31 02:18:47;;;;;;;15.63;6.80;;;;;;;;;;5008482;28;20044;-69
2021/01/31 02:21:33;;;;;;;13.67;6.37;;;;;;;;;;5007035;28;20502;-68
2021/01/31 02:24:17;;;;;;;16.67;6.73;;;;;;;;;;5005555;28;20403;-69
2021/01/31 02:26:50;;;;;;;15.90;6.10;;;;;;;;;;5015467;28;20404;-69
2021/01/31 02:29:19;;;;;;;14.30;6.00;;;;;;;;;;5013434;28;20054;-69
2021/01/31 02:32:01;;;;;;;13.50;6.07;;;;;;;;;;5007994;28;20049;-69
2021/01/31 02:34:30;;;;;;;13.53;5.80;;;;;;;;;;5008776;28;20062;-69
2021/01/31 02:37:10;;;;;;;14.60;6.30;;;;;;;;;;5010675;28;20038;-69
2021/01/31 02:39:36;;;;;;;14.27;6.37;;;;;;;;;;5008695;28;20034;-68
2021/01/31 02:42:21;;;;;;;12.70;5.70;;;;;;;;;;5004659;28;20410;-69
2021/01/31 02:45:08;;;;;;;12.53;6.60;;;;;;;;;;5006545;28;20049;-69
2021/01/31 02:47:38;;;;;;;16.48;7.03;;;;;;;;;;5007388;28;20654;-69
2021/01/31 02:50:08;;;;;;;18.30;7.20;;;;;;;;;;5004403;28;20099;-69
2021/01/31 02:52:37;;;;;;;17.03;6.80;;;;;;;;;;4999320;28;20042;-69
2021/01/31 02:55:09;;;;;;;12.50;6.13;;;;;;;;;;5001887;28;20124;-69
2021/01/31 02:57:56;;;;;;;19.63;7.00;;;;;;;;;;5011186;28;20045;-69
2021/01/31 03:00:25;;;;;;;16.77;6.23;;;;;;;;;;5005100;28;20108;-69
2021/01/31 03:03:10;;;;;;;13.60;6.73;;;;;;;;;;4999418;28;20042;-68
2021/01/31 03:05:38;;;;;;;14.47;6.80;;;;;;;;;;5003130;28;20037;-68
2021/01/31 03:08:07;;;;;;;19.27;6.80;;;;;;;;;;5001958;28;20202;-68
2021/01/31 03:10:41;;;;;;;17.80;6.67;;;;;;;;;;5004765;28;20065;-68
2021/01/31 03:13:11;;;;;;;13.10;6.57;;;;;;;;;;5005780;28;20053;-69
2021/01/31 03:15:42;;;;;;;15.47;6.17;;;;;;;;;;5011342;28;20041;-69
2021/01/31 03:18:14;;;;;;;15.80;6.90;;;;;;;;;;5009341;28;20045;-69
2021/01/31 03:20:44;;;;;;;14.03;6.30;;;;;;;;;;5002435;28;20046;-69
2021/01/31 03:23:14;;;;;;;16.77;7.30;;;;;;;;;;5009900;28;20045;-68
2021/01/31 03:25:44;;;;;;;14.23;7.03;;;;;;;;;;5018536;28;20038;-68
2021/01/31 03:28:11;;;;;;;13.97;5.80;;;;;;;;;;5012373;28;20041;-69
2021/01/31 03:30:37;;;;;;;16.92;6.47;;;;;;;;;;5021843;28;20085;-68
2021/01/31 03:33:05;;;;;;;12.90;6.10;;;;;;;;;;5005432;28;20038;-68
2021/01/31 03:35:36;;;;;;;12.83;6.10;;;;;;;;;;5009591;28;20069;-69
2021/01/31 03:38:02;;;;;;;15.07;6.07;;;;;;;;;;5005522;28;20046;-68
2021/01/31 03:40:29;;;;;;;13.70;6.65;;;;;;;;;;5005878;28;20046;-69
2021/01/31 03:42:56;;;;;;;11.87;5.90;;;;;;;;;;4998389;28;20046;-68
2021/01/31 03:45:27;;;;;;;17.23;6.85;;;;;;;;;;5007433;28;20066;-69
2021/01/31 03:48:07;;;;;;;15.93;6.33;;;;;;;;;;5002887;28;20045;-69
2021/01/31 03:50:33;;;;;;;11.60;6.03;;;;;;;;;;5006562;28;20042;-68
2021/01/31 03:53:00;;;;;;;15.32;6.80;;;;;;;;;;5007077;28;20037;-68
2021/01/31 03:55:26;;;;;;;18.60;6.95;;;;;;;;;;5005711;28;20048;-68
2021/01/31 03:58:01;;;;;;;18.83;7.07;;;;;;;;;;5013137;28;20046;-68
2021/01/31 04:00:29;;;;;;;15.07;6.67;;;;;;;;;;5004060;28;20045;-68
2021/01/31 04:03:07;;;;;;;15.57;6.43;;;;;;;;;;5021800;28;20096;-69
2021/01/31 04:05:35;;;;;;;10.93;5.00;;;;;;;;;;5012685;28;20113;-68
2021/01/31 04:08:03;;;;;;;15.23;6.80;;;;;;;;;;5000497;28;20050;-68
2021/01/31 04:10:29;;;;;;;13.10;5.90;;;;;;;;;;5003327;28;20505;-68
2021/01/31 04:12:58;;;;;;;14.85;6.85;;;;;;;;;;5009483;28;20505;-68
2021/01/31 04:15:24;;;;;;;12.23;5.87;;;;;;;;;;5008627;28;20077;-68
2021/01/31 04:17:50;;;;;;;15.07;5.60;;;;;;;;;;5004346;28;20112;-68
2021/01/31 04:20:17;;;;;;;12.85;6.55;;;;;;;;;;4999811;28;20057;-68
2021/01/31 04:22:44;;;;;;;14.85;6.25;;;;;;;;;;5008157;28;20528;-68
2021/01/31 04:25:10;;;;;;;12.32;6.32;;;;;;;;;;5004402;28;20053;-69
2021/01/31 04:27:36;;;;;;;13.00;6.30;;;;;;;;;;5007090;28;20057;-68
2021/01/31 04:30:05;;;;;;;13.07;5.53;;;;;;;;;;5004936;28;20343;-68
2021/01/31 04:32:31;;;;;;;11.97;5.40;;;;;;;;;;5005932;28;20075;-69
2021/01/31 04:34:58;;;;;;;14.37;6.20;;;;;;;;;;5002918;28;20074;-68
2021/01/31 04:37:24;;;;;;;15.50;5.97;;;;;;;;;;5001462;28;20042;-68
2021/01/31 04:39:51;;;;;;;12.48;5.55;;;;;;;;;;5005601;28;20057;-68
2021/01/31 04:42:18;;;;;;;12.27;5.77;;;;;;;;;;4998346;28;20050;-68
2021/01/31 04:44:45;;;;;;;15.10;5.40;;;;;;;;;;5006108;28;20053;-68
2021/01/31 04:47:25;;;;;;;12.60;6.35;;;;;;;;;;5001699;28;20396;-68
2021/01/31 04:49:56;;;;;;;12.27;5.77;;;;;;;;;;5002547;28;20046;-68
2021/01/31 04:52:26;;;;;;;12.47;6.20;;;;;;;;;;5004388;28;20054;-68
2021/01/31 04:55:14;;;;;;;11.77;6.03;;;;;;;;;;5004418;28;20030;-68
2021/01/31 04:57:44;;;;;;;10.57;5.53;;;;;;;;;;5010869;28;20053;-68
2021/01/31 05:00:22;;;;;;;12.27;6.20;;;;;;;;;;5003345;28;20050;-68
2021/01/31 05:02:56;;;;;;;12.97;5.50;;;;;;;;;;5008508;28;20406;-68
2021/01/31 05:05:36;;;;;;;10.37;5.37;;;;;;;;;;5005205;28;20533;-68
2021/01/31 05:08:05;;;;;;;9.90;5.27;;;;;;;;;;5005778;28;20038;-68
2021/01/31 05:10:31;;;;;;;10.67;6.00;;;;;;;;;;5002890;28;20049;-68
2021/01/31 05:12:57;;;;;;;8.98;4.45;;;;;;;;;;5006617;28;20038;-68
2021/01/31 05:15:26;;;;;;;12.77;5.18;;;;;;;;;;5001570;28;20048;-68
2021/01/31 05:17:54;;;;;;;11.97;5.43;;;;;;;;;;5002992;28;20045;-68
2021/01/31 05:20:21;;;;;;;10.83;5.27;;;;;;;;;;5006772;28;20044;-68
2021/01/31 05:22:50;;;;;;;13.07;6.10;;;;;;;;;;5001819;28;20068;-68
2021/01/31 05:25:18;;;;;;;13.30;5.80;;;;;;;;;;5005859;28;21912;-68
2021/01/31 05:27:45;;;;;;;12.30;5.73;;;;;;;;;;5002967;28;20049;-68
2021/01/31 05:30:12;;;;;;;8.30;4.13;;;;;;;;;;5005656;28;20069;-69
2021/01/31 05:33:12;;;;;;;12.37;6.00;;;;;;;;;;5018945;28;20136;-68
2021/01/31 05:35:41;;;;;;;12.77;5.70;;;;;;;;;;4998612;28;20061;-69
2021/01/31 05:38:08;;;;;;;16.77;5.50;;;;;;;;;;5001835;28;20053;-68
2021/01/31 05:40:36;;;;;;;12.47;5.87;;;;;;;;;;5005826;28;20403;-68
2021/01/31 05:43:04;;;;;;;14.47;5.83;;;;;;;;;;5004896;28;20049;-68
2021/01/31 05:45:38;;;;;;;11.17;5.23;;;;;;;;;;5004588;28;20490;-68
2021/01/31 05:48:24;;;;;;;11.73;4.93;;;;;;;;;;5004037;28;20505;-68
2021/01/31 05:50:52;;;;;;;12.30;5.60;;;;;;;;;;5006667;28;20505;-68
2021/01/31 05:53:35;;;;;;;11.40;5.63;;;;;;;;;;5001588;28;20053;-68
2021/01/31 05:56:20;;;;;;;10.20;5.50;;;;;;;;;;5001955;28;20109;-68
2021/01/31 05:58:47;;;;;;;13.83;5.80;;;;;;;;;;5002687;28;20438;-69
2021/01/31 06:01:13;;;;;;;;;;;;;;;;;;5003155;28;20054;-68
2021/01/31 06:03:40;;;;;;;12.07;5.70;;;;;;;;;;5005350;28;19936;-68
2021/01/31 06:06:11;;;;;;;7.40;4.25;;;;;;;;;;5005744;28;20050;-68
2021/01/31 06:08:38;;;;;;;14.57;5.30;;;;;;;;;;5003556;28;20053;-68
2021/01/31 06:11:06;;;;;;;12.07;5.63;;;;;;;;;;4997528;28;20042;-68
2021/01/31 06:13:33;;;;;;;11.00;4.93;;;;;;;;;;5002055;28;20042;-68
2021/01/31 06:16:01;;;;;;;11.47;5.40;;;;;;;;;;5006615;28;20034;-69
2021/01/31 06:18:31;;;;;;;11.00;4.90;;;;;;;;;;4994333;28;20401;-68
2021/01/31 06:21:09;;;;;;;13.83;5.13;;;;;;;;;;5008292;28;20096;-68
2021/01/31 06:23:44;;;;;;;12.03;5.23;;;;;;;;;;5009667;28;20074;-68
2021/01/31 06:26:24;;;;;;;13.83;5.97;;;;;;;;;;5018051;28;20092;-68
2021/01/31 06:28:51;;;;;;;12.40;5.43;;;;;;;;;;5002233;28;20078;-69
2021/01/31 06:31:27;;;;;;;12.40;5.20;;;;;;;;;;5003929;28;20065;-68
2021/01/31 06:33:54;;;;;;;9.20;4.97;;;;;;;;;;5005284;28;20544;-68
2021/01/31 06:36:20;;;;;;;9.93;5.00;;;;;;;;;;5009012;28;20069;-69
2021/01/31 06:39:03;;;;;;;9.40;4.57;;;;;;;;;;5009822;28;20041;-68
2021/01/31 06:41:42;;;;;;;11.97;5.43;;;;;;;;;;5010039;28;20091;-68
2021/01/31 06:44:21;;;;;;;11.77;5.27;;;;;;;;;;5010276;28;20045;-68
2021/01/31 06:47:05;;;;;;;10.67;4.60;;;;;;;;;;5003151;28;20096;-68
2021/01/31 06:49:39;;;;;;;13.88;5.07;;;;;;;;;;5010416;28;20073;-68
2021/01/31 06:52:12;;;;;;;10.87;4.47;;;;;;;;;;5004799;28;20042;-68
2021/01/31 06:54:58;;;;;;;7.53;4.17;;;;;;;;;;5006077;28;20208;-68
2021/01/31 06:57:25;;;;;;;10.87;4.43;;;;;;;;;;5013693;28;20045;-68
2021/01/31 07:00:06;;;;;;;9.95;4.85;;;;;;;;;;5007939;28;20406;-68
2021/01/31 07:02:38;;;;;;;12.10;5.07;;;;;;;;;;5008429;28;20042;-68
2021/01/31 07:05:06;;;;;;;9.87;5.03;;;;;;;;;;5001406;28;20042;-68
2021/01/31 07:07:51;;;;;;;11.23;5.53;;;;;;;;;;5007506;28;20422;-68
2021/01/31 07:10:40;;;;;;;20.90;6.03;;;;;;;;;;5005814;28;20510;-68
2021/01/31 07:13:07;;;;;;;15.47;5.80;;;;;;;;;;5006207;28;20041;-68
2021/01/31 07:15:41;;;;;;;25.20;6.33;;;;;;;;;;5006545;28;20031;-68
2021/01/31 07:18:10;;;;;;;21.73;5.70;;;;;;;;;;5008313;28;20050;-68
2021/01/31 07:20:41;;;;;;;28.97;7.30;;;;;;;;;;5007205;28;20045;-68
2021/01/31 07:23:11;;;;;;;28.83;7.20;;;;;;;;;;5011588;28;20054;-68
2021/01/31 07:25:38;;;;;;;26.53;6.87;;;;;;;;;;5005372;28;20034;-68
2021/01/31 07:28:05;;;;;;;21.10;7.60;;;;;;;;;;5006517;28;20042;-68
2021/01/31 07:30:34;;;;;;;32.80;9.20;;;;;;;;;;5009115;28;20048;-68
2021/01/31 07:33:11;;;;;;;53.17;11.27;;;;;;;;;;5001540;28;20049;-68
2021/01/31 07:35:45;;;;;;;306.70;85.47;;;;;;;;;;5007041;28;20055;-67
2021/01/31 07:38:20;;;;;;;88.87;12.77;;;;;;;;;;5011048;28;20046;-67
2021/01/31 07:40:48;;;;;;;90.40;10.50;;;;;;;;;;5006138;28;20387;-67
2021/01/31 07:43:17;;;;;;;53.73;12.73;;;;;;;;;;5007938;28;20038;-68
2021/01/31 07:45:44;;;;;;;86.23;13.00;;;;;;;;;;5008512;28;20048;-68
2021/01/31 07:48:29;;;;;;;43.22;14.38;;;;;;;;;;5008199;28;20129;-68
2021/01/31 07:50:56;;;;;;;20.77;7.30;;;;;;;;;;5007991;28;20042;-68
2021/01/31 07:53:26;;;;;;;71.97;9.13;;;;;;;;;;5008913;28;20038;-67
2021/01/31 07:55:53;;;;;;;27.10;8.20;;;;;;;;;;5006317;28;20038;-68
2021/01/31 07:58:25;;;;;;;18.17;6.25;;;;;;;;;;5009335;28;20038;-67
2021/01/31 08:00:53;;;;;;;19.10;8.50;;;;;;;;;;5008379;28;20030;-68
2021/01/31 08:03:28;;;;;;;26.27;8.90;;;;;;;;;;5002142;28;20053;-67
2021/01/31 08:06:02;;;;;;;26.73;10.80;;;;;;;;;;5002215;28;20097;-68
2021/01/31 08:08:39;;;;;;;20.83;8.57;;;;;;;;;;5003831;28;20034;-68
2021/01/31 08:11:10;;;;;;;14.75;6.82;;;;;;;;;;5005767;28;20116;-68
2021/01/31 08:13:38;;;;;;;25.40;8.47;;;;;;;;;;5007592;28;20180;-68
2021/01/31 08:16:24;;;;;;;26.87;9.03;;;;;;;;;;5008662;28;20038;-68
2021/01/31 08:19:06;;;;;;;90.23;11.70;;;;;;;;;;5005724;28;20042;-68
2021/01/31 08:21:51;;;;;;;47.00;11.13;;;;;;;;;;5021213;28;20073;-68
2021/01/31 08:24:36;;;;;;;61.20;12.03;;;;;;;;;;5008436;28;20105;-68
2021/01/31 08:27:02;;;;;;;40.83;11.07;;;;;;;;;;5023105;28;20045;-68
2021/01/31 08:29:29;;;;;;;22.20;7.80;;;;;;;;;;5005726;28;20576;-68
2021/01/31 08:32:06;;;;;;;37.35;12.77;;;;;;;;;;5007839;28;20092;-68
2021/01/31 08:34:51;;;;;;;31.30;11.45;;;;;;;;;;5006053;28;20038;-68
2021/01/31 08:37:27;;;;;;;38.17;15.20;;;;;;;;;;5006201;28;20053;-68
2021/01/31 08:39:53;;;;;;;69.27;11.20;;;;;;;;;;5009045;28;20052;-68
2021/01/31 08:42:19;;;;;;;33.70;9.70;;;;;;;;;;5004357;28;20781;-68
2021/01/31 08:44:54;;;;;;;50.67;12.57;;;;;;;;;;5007181;28;20060;-68
2021/01/31 08:47:20;;;;;;;98.13;11.83;;;;;;;;;;5007870;28;20107;-68
2021/01/31 08:49:57;;;;;;;75.53;9.80;;;;;;;;;;5005897;28;20042;-68
2021/01/31 08:52:23;;;;;;;106.00;10.87;;;;;;;;;;5006793;28;20121;-68
2021/01/31 08:54:59;;;;;;;258.17;15.60;;;;;;;;;;5008121;28;20049;-69
2021/01/31 08:57:26;;;;;;;135.23;12.73;;;;;;;;;;5014634;28;20405;-68
2021/01/31 08:59:52;;;;;;;136.13;11.73;;;;;;;;;;5009187;28;20041;-68
2021/01/31 09:02:20;;;;;;;126.83;12.57;;;;;;;;;;5007958;28;20069;-68
2021/01/31 09:05:06;;;;;;;280.93;24.30;;;;;;;;;;4998832;28;20050;-68
2021/01/31 09:07:34;;;;;;;157.57;14.60;;;;;;;;;;5003770;28;20041;-68
2021/01/31 09:10:10;;;;;;;122.37;12.47;;;;;;;;;;5007873;28;20398;-68
2021/01/31 09:12:36;;;;;;;76.70;11.07;;;;;;;;;;5008599;28;20054;-68
2021/01/31 09:15:11;;;;;;;171.70;13.67;;;;;;;;;;5007661;28;20054;-68
2021/01/31 09:17:38;;;;;;;116.47;12.90;;;;;;;;;;5006787;28;20394;-68
2021/01/31 09:20:06;;;;;;;121.00;10.60;;;;;;;;;;5004278;28;20037;-68
2021/01/31 09:22:33;;;;;;;166.80;11.80;;;;;;;;;;5004992;28;20379;-68
2021/01/31 09:25:01;;;;;;;97.32;13.55;;;;;;;;;;5004944;28;20125;-68
2021/01/31 09:27:29;;;;;;;79.97;10.03;;;;;;;;;;5007317;28;20061;-68
2021/01/31 09:29:57;;;;;;;88.33;9.67;;;;;;;;;;5001518;28;20116;-68
2021/01/31 09:32:25;;;;;;;107.83;9.90;;;;;;;;;;5003180;28;20054;-67
2021/01/31 09:34:52;;;;;;;119.27;10.10;;;;;;;;;;5008549;28;20081;-68
2021/01/31 09:37:25;;;;;;;101.85;11.75;;;;;;;;;;5010204;28;20037;-68
2021/01/31 09:39:53;;;;;;;126.93;10.40;;;;;;;;;;5010596;28;20498;-67
2021/01/31 09:42:20;;;;;;;117.70;10.50;;;;;;;;;;5008563;28;20046;-68
2021/01/31 09:44:54;;;;;;;42.97;8.77;;;;;;;;;;5008358;28;20041;-68
2021/01/31 09:47:21;;;;;;;61.73;9.20;;;;;;;;;;5008998;28;20081;-68
2021/01/31 09:49:51;;;;;;;61.65;10.55;;;;;;;;;;5006267;28;20038;-68
2021/01/31 09:52:17;;;;;;;40.70;8.30;;;;;;;;;;5003638;28;20041;-67
2021/01/31 09:54:43;;;;;;;80.57;10.63;;;;;;;;;;5007174;28;20049;-67
2021/01/31 09:57:16;;;;;;;69.93;9.93;;;;;;;;;;5010604;28;20049;-68
2021/01/31 09:59:43;;;;;;;38.80;8.00;;;;;;;;;;5006027;28;20046;-67
2021/01/31 10:02:10;;;;;;;61.83;10.90;;;;;;;;;;5004450;28;20049;-67
2021/01/31 10:04:37;;;;;;;24.00;7.47;;;;;;;;;;5005833;28;20069;-68
2021/01/31 10:07:07;;;;;;;26.05;10.68;;;;;;;;;;5006902;28;20130;-68
2021/01/31 10:09:36;;;;;;;20.23;8.27;;;;;;;;;;5008561;28;20046;-68
2021/01/31 10:12:21;;;;;;;17.37;8.57;;;;;;;;;;5008472;28;20045;-68
2021/01/31 10:14:48;;;;;;;20.20;8.03;;;;;;;;;;5011773;28;20095;-68
2021/01/31 10:17:20;;;;;;;17.75;7.55;;;;;;;;;;5010561;28;20054;-68
2021/01/31 10:19:46;;;;;;;17.80;7.70;;;;;;;;;;5006260;28;20120;-68
2021/01/31 10:22:22;;;;;;;22.53;7.77;;;;;;;;;;5009723;28;20050;-67
2021/01/31 10:24:48;;;;;;;18.80;8.27;;;;;;;;;;5009293;28;20056;-68
2021/01/31 10:27:23;;;;;;;18.20;8.38;;;;;;;;;;5007230;28;20069;-68
2021/01/31 10:29:49;;;;;;;17.53;7.83;;;;;;;;;;5007249;28;20058;-68
2021/01/31 10:32:20;;;;;;;17.60;8.90;;;;;;;;;;5010580;28;20217;-68
2021/01/31 10:34:46;;;;;;;19.83;8.20;;;;;;;;;;5005630;28;20053;-68
2021/01/31 10:37:12;;;;;;;18.37;7.93;;;;;;;;;;5009399;28;20045;-68
2021/01/31 10:39:38;;;;;;;18.27;7.93;;;;;;;;;;5005778;28;20042;-68
2021/01/31 10:42:04;;;;;;;14.73;8.10;;;;;;;;;;5011747;28;20108;-67
2021/01/31 10:44:32;;;;;;;19.53;8.50;;;;;;;;;;5009039;28;20038;-67
2021/01/31 10:46:58;;;;;;;;;;;;;;;;;;5013943;28;20050;-68
2021/01/31 10:49:24;;;;;;;19.57;8.23;;;;;;;;;;5012791;28;19975;-68
2021/01/31 10:51:50;;;;;;;14.67;8.00;;;;;;;;;;5012206;28;20057;-68
2021/01/31 10:54:18;;;;;;;15.43;8.17;;;;;;;;;;5010931;28;20042;-68
2021/01/31 10:56:44;;;;;;;13.57;7.30;;;;;;;;;;5014780;28;20049;-67
2021/01/31 10:59:11;;;;;;;16.15;7.82;;;;;;;;;;5015269;28;20494;-68
2021/01/31 11:01:41;;;;;;;11.50;5.67;;;;;;;;;;5012205;28;20042;-67
2021/01/31 11:04:11;;;;;;;15.87;7.87;;;;;;;;;;5008898;28;20521;-67
2021/01/31 11:06:37;;;;;;;14.50;7.25;;;;;;;;;;5012646;28;20041;-67
2021/01/31 11:09:04;;;;;;;17.92;8.15;;;;;;;;;;5010168;28;20099;-68
2021/01/31 11:11:30;;;;;;;13.75;7.32;;;;;;;;;;5007139;28;20035;-67
2021/01/31 11:13:56;;;;;;;13.43;7.32;;;;;;;;;;5008569;28;20041;-67
2021/01/31 11:16:23;;;;;;;16.88;8.50;;;;;;;;;;5006872;28;20113;-67
2021/01/31 11:18:49;;;;;;;18.08;9.20;;;;;;;;;;5008393;28;20089;-67
2021/01/31 11:21:20;;;;;;;16.08;8.45;;;;;;;;;;5001969;28;20100;-68
2021/01/31 11:23:46;;;;;;;16.88;8.90;;;;;;;;;;5010004;28;20088;-67
2021/01/31 11:26:12;;;;;;;18.33;9.40;;;;;;;;;;5005318;28;20135;-68
2021/01/31 11:28:39;;;;;;;19.17;8.73;;;;;;;;;;5004956;28;20529;-67
2021/01/31 11:31:05;;;;;;;15.57;8.13;;;;;;;;;;5010946;28;20053;-67
2021/01/31 11:33:31;;;;;;;14.90;7.38;;;;;;;;;;5012491;28;20045;-67
2021/01/31 11:35:57;;;;;;;13.40;7.32;;;;;;;;;;5008654;28;20108;-68
2021/01/31 11:38:24;;;;;;;12.32;7.13;;;;;;;;;;5009707;28;20042;-68
2021/01/31 11:40:51;;;;;;;14.35;7.70;;;;;;;;;;5003683;28;20136;-68
2021/01/31 11:43:17;;;;;;;14.80;7.57;;;;;;;;;;5009562;28;20052;-69
2021/01/31 11:45:43;;;;;;;14.25;7.43;;;;;;;;;;5009981;28;20042;-69
2021/01/31 11:48:10;;;;;;;13.10;7.07;;;;;;;;;;5004507;28;20088;-69
2021/01/31 11:50:36;;;;;;;9.95;5.88;;;;;;;;;;5003934;28;20117;-68
2021/01/31 11:53:04;;;;;;;14.77;7.65;;;;;;;;;;5008877;28;20100;-68
2021/01/31 11:55:30;;;;;;;16.15;7.53;;;;;;;;;;5005698;28;20113;-68
2021/01/31 11:57:57;;;;;;;18.10;8.68;;;;;;;;;;5007150;28;20042;-68
2021/01/31 12:00:23;;;;;;;17.58;9.18;;;;;;;;;;5004944;28;20034;-68
2021/01/31 12:02:49;;;;;;;17.58;8.85;;;;;;;;;;5003186;28;20041;-67
2021/01/31 12:05:17;;;;;;;19.40;9.15;;;;;;;;;;5008030;28;20553;-67
2021/01/31 12:07:43;;;;;;;22.95;8.80;;;;;;;;;;5007528;28;20073;-67
2021/01/31 12:10:11;;;;;;;17.80;8.90;;;;;;;;;;5006822;28;20065;-67
2021/01/31 12:12:37;;;;;;;23.73;9.98;;;;;;;;;;4999957;28;20464;-72
2021/01/31 12:15:04;;;;;;;16.27;8.60;;;;;;;;;;5004367;28;20049;-67
2021/01/31 12:17:30;;;;;;;11.10;5.97;;;;;;;;;;5005969;28;20351;-65
2021/01/31 12:19:57;;;;;;;14.70;8.25;;;;;;;;;;5007885;28;20072;-65
2021/01/31 12:22:23;;;;;;;14.20;6.55;;;;;;;;;;5004612;28;20049;-63
2021/01/31 12:24:52;;;;;;;16.30;7.38;;;;;;;;;;5006437;28;20092;-64
2021/01/31 12:27:23;;;;;;;12.00;6.40;;;;;;;;;;5003452;28;20046;-62
2021/01/31 12:29:49;;;;;;;12.68;6.78;;;;;;;;;;4998577;28;20061;-62
2021/01/31 12:32:16;;;;;;;12.05;5.45;;;;;;;;;;5007483;28;20034;-64
2021/01/31 12:34:42;;;;;;;7.80;5.07;;;;;;;;;;5004244;28;20064;-62
2021/01/31 12:37:09;;;;;;;9.40;6.00;;;;;;;;;;5008004;28;20034;-65
2021/01/31 12:39:35;;;;;;;11.10;5.32;;;;;;;;;;5007697;28;20058;-66
2021/01/31 12:42:01;;;;;;;14.25;6.90;;;;;;;;;;5023330;28;20045;-66
2021/01/31 12:44:27;;;;;;;10.68;6.00;;;;;;;;;;5008002;28;20045;-63
2021/01/31 12:46:54;;;;;;;12.77;6.18;;;;;;;;;;5006426;28;20070;-62
2021/01/31 12:49:20;;;;;;;13.57;6.07;;;;;;;;;;5004421;28;20054;-62
2021/01/31 12:51:46;;;;;;;14.98;7.10;;;;;;;;;;5006211;28;20053;-62
2021/01/31 12:54:12;;;;;;;11.85;6.20;;;;;;;;;;5008557;28;20551;-65
2021/01/31 12:56:42;;;;;;;12.00;6.47;;;;;;;;;;5001743;28;20029;-65
2021/01/31 12:59:09;;;;;;;12.15;6.30;;;;;;;;;;5005513;28;20050;-65
2021/01/31 13:01:35;;;;;;;12.67;6.47;;;;;;;;;;5002427;28;20441;-65
2021/01/31 13:04:02;;;;;;;11.63;6.70;;;;;;;;;;5006559;28;20048;-65
2021/01/31 13:06:28;;;;;;;12.25;6.80;;;;;;;;;;5004205;28;20040;-65
2021/01/31 13:08:54;;;;;;;11.65;6.07;;;;;;;;;;5005259;28;20092;-65
2021/01/31 13:11:20;;;;;;;12.70;6.10;;;;;;;;;;5003535;28;20042;-65
2021/01/31 13:13:46;;;;;;;16.35;6.93;;;;;;;;;;5005586;28;20116;-65
2021/01/31 13:16:13;;;;;;;9.63;5.78;;;;;;;;;;5000104;28;20061;-65
2021/01/31 13:18:39;;;;;;;11.20;5.82;;;;;;;;;;5024564;28;20084;-65
2021/01/31 13:21:05;;;;;;;9.98;5.70;;;;;;;;;;5009497;28;20501;-65
2021/01/31 13:23:31;;;;;;;9.27;5.60;;;;;;;;;;4999855;28;20469;-64
2021/01/31 13:25:57;;;;;;;13.98;6.00;;;;;;;;;;5006691;28;20042;-65
2021/01/31 13:28:23;;;;;;;10.93;6.53;;;;;;;;;;5004485;28;20529;-65
2021/01/31 13:30:50;;;;;;;8.95;5.30;;;;;;;;;;5003167;28;20046;-65
2021/01/31 13:33:16;;;;;;;9.43;5.30;;;;;;;;;;5004835;28;20050;-65
2021/01/31 13:35:42;;;;;;;9.73;5.10;;;;;;;;;;5002808;28;20414;-65
2021/01/31 13:38:08;;;;;;;10.95;5.00;;;;;;;;;;5002988;28;20124;-65
2021/01/31 13:40:43;;;;;;;10.48;5.03;;;;;;;;;;5004066;28;20211;-65
2021/01/31 13:43:09;;;;;;;11.23;4.80;;;;;;;;;;5004279;28;20128;-65
2021/01/31 13:45:35;;;;;;;9.43;5.43;;;;;;;;;;5005001;28;20057;-65
2021/01/31 13:48:01;;;;;;;9.95;5.15;;;;;;;;;;5004667;28;20057;-65
2021/01/31 13:50:28;;;;;;;8.60;4.82;;;;;;;;;;5004162;28;20068;-65
2021/01/31 13:52:54;;;;;;;8.65;4.90;;;;;;;;;;5002418;28;20046;-65
2021/01/31 13:55:20;;;;;;;8.35;4.95;;;;;;;;;;5001517;28;20042;-65
2021/01/31 13:57:47;;;;;;;8.88;4.82;;;;;;;;;;5002309;28;20091;-65
2021/01/31 14:00:14;;;;;;;10.05;5.25;;;;;;;;;;5000984;28;20037;-65
2021/01/31 14:02:40;;;;;;;11.15;5.10;;;;;;;;;;5004786;28;20062;-65
2021/01/31 14:05:07;;;;;;;7.63;4.38;;;;;;;;;;5002197;28;20411;-65
2021/01/31 14:07:33;;;;;;;7.15;3.85;;;;;;;;;;4995889;28;20409;-65
2021/01/31 14:10:00;;;;;;;9.00;4.20;;;;;;;;;;5004243;28;20080;-65
2021/01/31 14:12:26;;;;;;;9.07;4.88;;;;;;;;;;5001201;28;20045;-65
2021/01/31 14:14:52;;;;;;;7.03;4.35;;;;;;;;;;4999966;28;20117;-65
2021/01/31 14:17:18;;;;;;;7.78;4.78;;;;;;;;;;5005843;28;20045;-65
2021/01/31 14:19:45;;;;;;;5.55;3.70;;;;;;;;;;5004984;28;20119;-65
2021/01/31 14:22:11;;;;;;;11.18;4.50;;;;;;;;;;5004452;28;20049;-65
2021/01/31 14:24:37;;;;;;;6.38;3.83;;;;;;;;;;5001212;28;20038;-65
2021/01/31 14:27:03;;;;;;;9.00;3.95;;;;;;;;;;5004996;28;20030;-65
2021/01/31 14:29:29;;;;;;;8.30;4.43;;;;;;;;;;5006475;28;20045;-64
2021/01/31 14:31:56;;;;;;;7.80;4.05;;;;;;;;;;5006393;28;20038;-65
2021/01/31 14:34:27;;;;;;;6.97;4.18;;;;;;;;;;5007899;28;20498;-65
2021/01/31 14:36:53;;;;;;;6.72;3.83;;;;;;;;;;5006012;28;20049;-65
2021/01/31 14:39:19;;;;;;;6.47;3.70;;;;;;;;;;5007013;28;20049;-65
2021/01/31 14:41:49;;;;;;;7.20;3.65;;;;;;;;;;4998270;28;20054;-65
2021/01/31 14:44:16;;;;;;;7.38;3.50;;;;;;;;;;5003480;28;20046;-65